createdAt,value
2023-01-17T00:02:35.424Z,3.55
2023-01-17T00:07:55.802Z,3.48
2023-01-17T00:13:03.461Z,3.46
2023-01-17T00:18:05.465Z,3.44
2023-01-17T00:23:34.307Z,3.39
2023-01-17T00:28:38.568Z,3.30
2023-01-17T00:33:40.364Z,3.17
2023-01-17T00:38:42.169Z,3.17
2023-01-17T00:44:02.185Z,3.19
2023-01-17T00:49:22.843Z,3.18
2023-01-17T01:08:20.497Z,3.16
2023-01-17T01:13:45.611Z,3.17
2023-01-17T01:19:06.382Z,3.22
2023-01-17T01:24:26.610Z,3.25
2023-01-17T01:29:46.780Z,3.25
2023-01-17T01:34:48.377Z,3.26
2023-01-17T01:39:50.048Z,3.26
2023-01-17T01:44:53.942Z,3.22
2023-01-17T01:49:55.749Z,3.18
2023-01-17T01:55:06.804Z,3.19
2023-01-17T02:00:16.436Z,3.18
2023-01-17T02:05:21.054Z,3.19
2023-01-17T02:10:22.968Z,3.18
2023-01-17T02:15:32.902Z,3.21
2023-01-17T02:20:57.166Z,3.18
2023-01-17T02:26:18.868Z,3.13
2023-01-17T02:31:43.725Z,3.04
2023-01-17T02:37:11.807Z,2.98
2023-01-17T02:42:18.155Z,2.95
2023-01-17T02:47:30.990Z,3.00
2023-01-17T02:52:57.326Z,2.95
2023-01-17T02:58:15.643Z,2.91
2023-01-17T03:03:30.738Z,2.84
2023-01-17T03:08:34.102Z,2.81
2023-01-17T03:13:36.746Z,2.78
2023-01-17T03:18:38.365Z,2.74
2023-01-17T03:23:39.975Z,2.73
2023-01-17T03:28:41.785Z,2.67
2023-01-17T03:33:43.852Z,2.60
2023-01-17T03:38:45.859Z,2.59
2023-01-17T03:43:47.773Z,2.51
2023-01-17T03:48:49.501Z,2.53
2023-01-17T03:53:51.998Z,2.52
2023-01-17T03:58:53.739Z,2.52
2023-01-17T04:03:55.376Z,2.54
2023-01-17T04:08:56.961Z,2.61
2023-01-17T04:13:58.587Z,2.54
2023-01-17T04:19:00.224Z,2.45
2023-01-17T04:24:01.851Z,2.44
2023-01-17T04:29:04.295Z,2.46
2023-01-17T04:34:05.914Z,2.49
2023-01-17T04:39:07.584Z,2.49
2023-01-17T04:44:09.413Z,2.49
2023-01-17T04:49:11.027Z,2.45
2023-01-17T04:54:12.671Z,2.41
2023-01-17T04:59:14.335Z,2.42
2023-01-17T05:04:16.064Z,2.38
2023-01-17T05:09:17.643Z,2.37
2023-01-17T05:14:19.223Z,2.36
2023-01-17T05:19:21.900Z,2.32
2023-01-17T05:24:23.799Z,2.24
2023-01-17T05:29:25.444Z,2.21
2023-01-17T05:34:27.119Z,2.19
2023-01-17T05:39:30.890Z,2.18
2023-01-17T05:44:32.576Z,2.11
2023-01-17T05:49:34.321Z,2.08
2023-01-17T05:54:36.003Z,2.05
2023-01-17T05:59:37.782Z,2.05
2023-01-17T06:04:39.446Z,2.01
2023-01-17T06:09:41.106Z,1.99
2023-01-17T06:14:42.764Z,1.94
2023-01-17T06:19:45.470Z,1.87
2023-01-17T06:24:51.852Z,1.84
2023-01-17T06:29:53.961Z,1.76
2023-01-17T06:34:56.041Z,1.67
2023-01-17T06:39:57.705Z,1.57
2023-01-17T06:44:59.652Z,1.60
2023-01-17T06:50:03.719Z,1.69
2023-01-17T06:55:06.156Z,1.74
2023-01-17T07:00:08.566Z,1.78
2023-01-17T07:05:10.203Z,1.78
2023-01-17T07:10:14.367Z,1.80
2023-01-17T07:15:16.043Z,1.79
2023-01-17T07:20:17.741Z,1.76
2023-01-17T07:25:20.357Z,1.83
2023-01-17T07:30:22.157Z,1.88
2023-01-17T07:35:26.718Z,1.94
2023-01-17T07:40:28.354Z,1.93
2023-01-17T07:45:29.987Z,1.89
2023-01-17T07:50:31.591Z,1.96
2023-01-17T07:55:33.505Z,2.06
2023-01-17T08:00:35.132Z,2.00
2023-01-17T08:05:36.808Z,1.88
2023-01-17T08:10:38.412Z,1.82
2023-01-17T08:15:40.079Z,1.91
2023-01-17T08:20:44.317Z,2.01
2023-01-17T08:25:46.006Z,1.97
2023-01-17T08:30:47.668Z,1.89
2023-01-17T08:35:55.679Z,1.78
2023-01-17T08:41:00.933Z,1.64
2023-01-17T08:46:02.784Z,1.74
2023-01-17T08:51:04.595Z,1.96
2023-01-17T08:56:06.660Z,2.02
2023-01-17T09:01:08.369Z,2.13
2023-01-17T09:06:13.509Z,2.18
2023-01-17T09:11:17.543Z,2.26
2023-01-17T09:16:19.242Z,2.41
2023-01-17T09:21:21.210Z,2.39
2023-01-17T09:26:28.193Z,2.23
2023-01-17T09:31:30.168Z,2.08
2023-01-17T09:36:34.280Z,2.29
2023-01-17T09:42:13.733Z,2.34
2023-01-17T09:47:25.671Z,2.28
2023-01-17T09:52:30.768Z,2.20
2023-01-17T09:57:38.397Z,2.42
2023-01-17T10:02:55.446Z,2.35
2023-01-17T10:08:16.338Z,2.50
2023-01-17T10:13:46.259Z,2.59
2023-01-17T10:19:20.215Z,2.49
2023-01-17T10:24:30.772Z,2.57
2023-01-17T10:29:35.424Z,2.67
2023-01-17T10:34:46.207Z,3.13
2023-01-17T10:39:50.092Z,3.42
2023-01-17T10:45:16.532Z,3.55
2023-01-17T10:50:21.149Z,3.82
2023-01-17T10:55:34.944Z,3.67
2023-01-17T11:00:44.357Z,2.98
2023-01-17T11:05:46.509Z,3.09
2023-01-17T11:10:56.455Z,3.66
2023-01-17T11:16:05.930Z,4.12
2023-01-17T11:21:21.468Z,4.38
2023-01-17T11:26:30.317Z,4.19
2023-01-17T11:31:31.937Z,3.74
2023-01-17T11:36:34.443Z,3.25
2023-01-17T11:41:38.550Z,3.47
2023-01-17T11:46:40.202Z,3.45
2023-01-17T11:51:43.249Z,3.10
2023-01-17T11:56:46.334Z,3.04
2023-01-17T12:02:16.179Z,3.03
2023-01-17T12:07:35.549Z,2.80
2023-01-17T12:13:14.633Z,2.65
2023-01-17T12:18:41.334Z,5.04
2023-01-17T12:24:03.993Z,4.95
2023-01-17T12:29:29.973Z,4.55
2023-01-17T12:34:41.622Z,4.73
2023-01-17T12:39:52.275Z,3.95
2023-01-17T12:45:05.647Z,3.87
2023-01-17T12:50:23.727Z,5.16
2023-01-17T12:55:37.645Z,8.39
2023-01-17T13:00:50.315Z,5.15
2023-01-17T13:05:55.520Z,3.68
2023-01-17T13:11:33.473Z,3.27
2023-01-17T13:16:57.911Z,3.25
2023-01-17T13:22:02.804Z,3.28
2023-01-17T13:27:13.759Z,3.35
2023-01-17T13:32:33.969Z,3.68
2023-01-17T13:37:41.550Z,3.64
2023-01-17T13:42:56.004Z,3.73
2023-01-17T13:48:38.280Z,4.13
2023-01-17T13:53:39.936Z,4.01
2023-01-17T13:58:51.670Z,4.16
2023-01-17T14:03:56.318Z,4.34
2023-01-17T14:09:19.235Z,3.83
2023-01-17T14:14:42.803Z,3.41
2023-01-17T14:19:47.228Z,3.19
2023-01-17T14:25:10.024Z,3.03
2023-01-17T14:30:18.135Z,2.84
2023-01-17T14:35:22.380Z,2.73
2023-01-17T14:40:27.384Z,2.52
2023-01-17T14:45:31.867Z,2.46
2023-01-17T14:50:39.361Z,2.33
2023-01-17T14:55:47.008Z,2.07
2023-01-17T15:00:51.541Z,2.02
2023-01-17T15:05:55.012Z,1.71
2023-01-17T15:11:01.969Z,1.40
2023-01-17T15:16:19.113Z,1.04
2023-01-17T15:21:28.022Z,0.84
2023-01-17T15:26:40.681Z,0.36
2023-01-17T15:31:47.051Z,-0.11
2023-01-17T15:36:49.858Z,-0.59
2023-01-17T15:41:53.386Z,-0.85
2023-01-17T15:46:55.266Z,-1.08
2023-01-17T15:52:17.226Z,-1.08
2023-01-17T15:57:37.488Z,-1.02
2023-01-17T16:02:43.152Z,-1.13
2023-01-17T16:07:45.055Z,-1.23
2023-01-17T16:12:48.852Z,-1.44
2023-01-17T16:17:58.074Z,-1.44
2023-01-17T16:23:00.549Z,-1.44
2023-01-17T16:28:03.378Z,-1.65
2023-01-17T16:33:05.145Z,-1.62
2023-01-17T16:38:11.087Z,-1.62
2023-01-17T16:43:14.551Z,-1.98
2023-01-17T16:48:18.954Z,-2.05
2023-01-17T16:53:25.183Z,-2.22
2023-01-17T16:58:26.934Z,-2.50
2023-01-17T17:03:29.632Z,-2.69
2023-01-17T17:08:33.827Z,-2.75
2023-01-17T17:13:36.222Z,-2.80
2023-01-17T17:18:38.193Z,-2.88
2023-01-17T17:23:40.033Z,-2.94
2023-01-17T17:28:41.656Z,-3.00
2023-01-17T17:33:43.273Z,-3.13
2023-01-17T17:38:51.038Z,-3.04
2023-01-17T17:43:53.694Z,-3.10
2023-01-17T17:48:57.037Z,-3.14
2023-01-17T17:54:01.629Z,-3.12
2023-01-17T17:59:05.685Z,-3.10
2023-01-17T18:04:08.196Z,-3.15
2023-01-17T18:09:11.110Z,-3.23
2023-01-17T18:14:15.097Z,-3.31
2023-01-17T18:19:19.947Z,-3.25
2023-01-17T18:24:23.721Z,-3.39
2023-01-17T18:29:26.968Z,-3.51
2023-01-17T18:34:29.389Z,-3.58
2023-01-17T18:39:31.320Z,-3.59
2023-01-17T18:44:33.020Z,-3.66
2023-01-17T18:49:35.053Z,-3.83
2023-01-17T18:54:36.661Z,-3.93
2023-01-17T18:59:38.283Z,-3.97
2023-01-17T19:04:39.994Z,-4.11
2023-01-17T19:09:41.664Z,-4.16
2023-01-17T19:14:43.265Z,-4.10
2023-01-17T19:19:44.956Z,-4.07
2023-01-17T19:24:46.530Z,-4.08
2023-01-17T19:29:48.974Z,-4.13
2023-01-17T19:34:50.596Z,-4.24
2023-01-17T19:39:52.311Z,-4.26
2023-01-17T19:44:54.635Z,-4.28
2023-01-17T19:49:56.245Z,-4.27
2023-01-17T19:54:57.831Z,-4.33
2023-01-17T19:59:59.416Z,-4.38
2023-01-17T20:05:01.098Z,-4.44
2023-01-17T20:10:02.924Z,-4.47
2023-01-17T20:15:06.229Z,-4.38
2023-01-17T20:20:12.776Z,-4.41
2023-01-17T20:25:14.585Z,-4.45
2023-01-17T20:30:20.421Z,-4.50
2023-01-17T20:35:22.607Z,-4.48
2023-01-17T20:40:24.200Z,-4.32
2023-01-17T20:45:25.800Z,-4.19
2023-01-17T20:50:27.448Z,-4.10
2023-01-17T20:55:29.215Z,-4.04
2023-01-17T21:00:31.155Z,-3.93
2023-01-17T21:05:32.800Z,-4.01
2023-01-17T21:10:34.375Z,-3.95
2023-01-17T21:15:42.218Z,-3.86
2023-01-17T21:20:44.082Z,-3.77
2023-01-17T21:25:58.755Z,-3.68
2023-01-17T21:31:01.495Z,-3.61
2023-01-17T21:36:08.386Z,-3.66
2023-01-17T21:41:10.026Z,-3.63
2023-01-17T21:46:11.884Z,-3.84
2023-01-17T21:51:13.669Z,-3.87
2023-01-17T21:56:34.413Z,-3.79
2023-01-17T22:01:36.108Z,-3.77
2023-01-17T22:06:41.135Z,-3.77
2023-01-17T22:11:42.831Z,-3.79
2023-01-17T22:16:44.455Z,-3.96
2023-01-17T22:21:46.052Z,-3.95
2023-01-17T22:26:47.671Z,-4.00
2023-01-17T22:31:49.367Z,-3.93
2023-01-17T22:36:51.022Z,-3.97
2023-01-17T22:41:52.651Z,-3.99
2023-01-17T22:46:54.273Z,-3.99
2023-01-17T22:51:55.878Z,-4.05
2023-01-17T22:56:58.756Z,-4.17
2023-01-17T23:02:00.374Z,-4.13
2023-01-17T23:07:02.061Z,-3.95
2023-01-17T23:12:03.690Z,-3.74
2023-01-17T23:17:23.982Z,-3.63
2023-01-17T23:22:28.086Z,-3.69
2023-01-17T23:27:51.877Z,-3.66
2023-01-17T23:32:56.246Z,-3.63
2023-01-17T23:38:17.224Z,-3.55
2023-01-17T23:43:24.665Z,-3.53
2023-01-17T23:48:26.840Z,-3.45
2023-01-17T23:53:28.729Z,-3.41
2023-01-17T23:58:30.357Z,-3.41
